sensor_id;sensor_type;location;lat;lon;timestamp;pressure;altitude;pressure_sealevel;temperature;humidity
77118;BME280;66072;50.238;19.228;2024-02-14T00:00:59;99039.66;;;-2.01;100.00
77118;BME280;66072;50.238;19.228;2024-02-14T00:03:39;99038.66;;;-2.02;100.00
77118;BME280;66072;50.238;19.228;2024-02-14T00:06:06;99040.66;;;-2.02;100.00
77118;BME280;66072;50.238;19.228;2024-02-14T00:08:34;99042.02;;;-2.00;100.00
77118;BME280;66072;50.238;19.228;2024-02-14T00:11:02;99049.24;;;-1.98;100.00
77118;BME280;66072;50.238;19.228;2024-02-14T00:13:30;99045.78;;;-1.95;100.00
77118;BME280;66072;50.238;19.228;2024-02-14T00:15:57;99050.55;;;-1.88;100.00
77118;BME280;66072;50.238;19.228;2024-02-14T00:18:25;99048.08;;;-1.85;100.00
77118;BME280;66072;50.238;19.228;2024-02-14T00:20:54;99045.77;;;-1.82;100.00
77118;BME280;66072;50.238;19.228;2024-02-14T00:23:22;99046.68;;;-1.77;100.00
77118;BME280;66072;50.238;19.228;2024-02-14T00:25:49;99049.08;;;-1.72;100.00
77118;BME280;66072;50.238;19.228;2024-02-14T00:28:17;99047.98;;;-1.66;100.00
77118;BME280;66072;50.238;19.228;2024-02-14T00:30:45;99049.41;;;-1.59;100.00
77118;BME280;66072;50.238;19.228;2024-02-14T00:33:13;99048.80;;;-1.52;100.00
77118;BME280;66072;50.238;19.228;2024-02-14T00:35:41;99045.68;;;-1.46;100.00
77118;BME280;66072;50.238;19.228;2024-02-14T00:38:08;99053.13;;;-1.40;100.00
77118;BME280;66072;50.238;19.228;2024-02-14T00:40:36;99055.05;;;-1.33;100.00
77118;BME280;66072;50.238;19.228;2024-02-14T00:43:04;99057.81;;;-1.25;100.00
77118;BME280;66072;50.238;19.228;2024-02-14T00:45:31;99055.86;;;-1.19;100.00
77118;BME280;66072;50.238;19.228;2024-02-14T00:47:59;99057.79;;;-1.12;100.00
77118;BME280;66072;50.238;19.228;2024-02-14T00:50:27;99059.88;;;-1.03;100.00
77118;BME280;66072;50.238;19.228;2024-02-14T00:52:55;99056.93;;;-0.95;100.00
77118;BME280;66072;50.238;19.228;2024-02-14T00:55:23;99059.67;;;-0.88;100.00
77118;BME280;66072;50.238;19.228;2024-02-14T00:57:50;99055.37;;;-0.81;100.00
77118;BME280;66072;50.238;19.228;2024-02-14T01:00:18;99057.61;;;-0.75;100.00
77118;BME280;66072;50.238;19.228;2024-02-14T01:02:46;99058.16;;;-0.69;100.00
77118;BME280;66072;50.238;19.228;2024-02-14T01:05:14;99059.21;;;-0.64;100.00
77118;BME280;66072;50.238;19.228;2024-02-14T01:07:42;99061.61;;;-0.59;100.00
77118;BME280;66072;50.238;19.228;2024-02-14T01:10:10;99058.95;;;-0.54;100.00
77118;BME280;66072;50.238;19.228;2024-02-14T01:12:37;99059.14;;;-0.51;100.00
77118;BME280;66072;50.238;19.228;2024-02-14T01:15:06;99054.13;;;-0.49;100.00
77118;BME280;66072;50.238;19.228;2024-02-14T01:17:34;99055.48;;;-0.46;100.00
77118;BME280;66072;50.238;19.228;2024-02-14T01:20:02;99053.13;;;-0.46;100.00
77118;BME280;66072;50.238;19.228;2024-02-14T01:22:30;99057.84;;;-0.45;100.00
77118;BME280;66072;50.238;19.228;2024-02-14T01:24:58;99050.61;;;-0.45;100.00
77118;BME280;66072;50.238;19.228;2024-02-14T01:27:25;99048.59;;;-0.45;100.00
77118;BME280;66072;50.238;19.228;2024-02-14T01:29:53;99047.08;;;-0.46;100.00
77118;BME280;66072;50.238;19.228;2024-02-14T01:32:21;99045.06;;;-0.48;100.00
77118;BME280;66072;50.238;19.228;2024-02-14T01:34:48;99041.16;;;-0.50;100.00
77118;BME280;66072;50.238;19.228;2024-02-14T01:37:16;99038.64;;;-0.51;100.00
77118;BME280;66072;50.238;19.228;2024-02-14T01:39:44;99041.66;;;-0.54;100.00
77118;BME280;66072;50.238;19.228;2024-02-14T01:42:12;99043.98;;;-0.57;100.00
77118;BME280;66072;50.238;19.228;2024-02-14T01:44:40;99040.24;;;-0.62;100.00
77118;BME280;66072;50.238;19.228;2024-02-14T01:47:07;99037.38;;;-0.65;100.00
77118;BME280;66072;50.238;19.228;2024-02-14T01:49:35;99033.13;;;-0.71;100.00
77118;BME280;66072;50.238;19.228;2024-02-14T01:52:04;99035.10;;;-0.76;100.00
77118;BME280;66072;50.238;19.228;2024-02-14T01:54:33;99035.56;;;-0.82;100.00
77118;BME280;66072;50.238;19.228;2024-02-14T01:57:01;99030.98;;;-0.87;100.00
77118;BME280;66072;50.238;19.228;2024-02-14T01:59:29;99038.83;;;-0.91;100.00
77118;BME280;66072;50.238;19.228;2024-02-14T02:01:57;99034.75;;;-0.97;100.00
77118;BME280;66072;50.238;19.228;2024-02-14T02:04:25;99034.88;;;-1.02;100.00
77118;BME280;66072;50.238;19.228;2024-02-14T02:06:53;99033.98;;;-1.07;100.00
77118;BME280;66072;50.238;19.228;2024-02-14T02:09:21;99038.48;;;-1.12;100.00
77118;BME280;66072;50.238;19.228;2024-02-14T02:11:51;99039.45;;;-1.16;100.00
77118;BME280;66072;50.238;19.228;2024-02-14T02:14:19;99042.94;;;-1.18;100.00
77118;BME280;66072;50.238;19.228;2024-02-14T02:16:47;99045.95;;;-1.20;100.00
77118;BME280;66072;50.238;19.228;2024-02-14T02:19:15;99040.08;;;-1.22;100.00
77118;BME280;66072;50.238;19.228;2024-02-14T02:21:43;99041.20;;;-1.23;100.00
77118;BME280;66072;50.238;19.228;2024-02-14T02:24:10;99045.06;;;-1.25;100.00
77118;BME280;66072;50.238;19.228;2024-02-14T02:26:38;99044.89;;;-1.26;100.00
77118;BME280;66072;50.238;19.228;2024-02-14T02:29:06;99042.54;;;-1.27;100.00
77118;BME280;66072;50.238;19.228;2024-02-14T02:31:34;99043.54;;;-1.26;100.00
77118;BME280;66072;50.238;19.228;2024-02-14T02:34:01;99043.38;;;-1.26;100.00
77118;BME280;66072;50.238;19.228;2024-02-14T02:36:30;99045.55;;;-1.26;100.00
77118;BME280;66072;50.238;19.228;2024-02-14T02:38:57;99045.40;;;-1.25;100.00
77118;BME280;66072;50.238;19.228;2024-02-14T02:41:25;99045.91;;;-1.24;100.00
77118;BME280;66072;50.238;19.228;2024-02-14T02:43:53;99043.91;;;-1.23;100.00
77118;BME280;66072;50.238;19.228;2024-02-14T02:46:21;99049.30;;;-1.22;100.00
77118;BME280;66072;50.238;19.228;2024-02-14T02:48:49;99052.16;;;-1.22;100.00
77118;BME280;66072;50.238;19.228;2024-02-14T02:51:17;99051.65;;;-1.21;100.00
77118;BME280;66072;50.238;19.228;2024-02-14T02:53:45;99051.49;;;-1.19;100.00
77118;BME280;66072;50.238;19.228;2024-02-14T02:56:12;99054.38;;;-1.17;100.00
77118;BME280;66072;50.238;19.228;2024-02-14T02:58:40;99052.73;;;-1.14;100.00
77118;BME280;66072;50.238;19.228;2024-02-14T03:01:08;99053.58;;;-1.12;100.00
77118;BME280;66072;50.238;19.228;2024-02-14T03:03:36;99060.15;;;-1.10;100.00
77118;BME280;66072;50.238;19.228;2024-02-14T03:06:04;99062.02;;;-1.06;100.00
77118;BME280;66072;50.238;19.228;2024-02-14T03:08:33;99058.88;;;-1.03;100.00
77118;BME280;66072;50.238;19.228;2024-02-14T03:11:05;99062.27;;;-0.98;100.00
77118;BME280;66072;50.238;19.228;2024-02-14T03:13:33;99061.46;;;-0.95;100.00
77118;BME280;66072;50.238;19.228;2024-02-14T03:16:01;99060.33;;;-0.92;100.00
77118;BME280;66072;50.238;19.228;2024-02-14T03:18:28;99061.36;;;-0.88;100.00
77118;BME280;66072;50.238;19.228;2024-02-14T03:20:56;99059.39;;;-0.84;100.00
77118;BME280;66072;50.238;19.228;2024-02-14T03:23:24;99062.76;;;-0.82;100.00
77118;BME280;66072;50.238;19.228;2024-02-14T03:25:52;99063.46;;;-0.79;100.00
77118;BME280;66072;50.238;19.228;2024-02-14T03:28:19;99064.31;;;-0.77;100.00
77118;BME280;66072;50.238;19.228;2024-02-14T03:30:47;99063.48;;;-0.75;100.00
77118;BME280;66072;50.238;19.228;2024-02-14T03:33:15;99064.16;;;-0.74;100.00
77118;BME280;66072;50.238;19.228;2024-02-14T03:35:43;99066.02;;;-0.73;100.00
77118;BME280;66072;50.238;19.228;2024-02-14T03:38:11;99068.06;;;-0.71;100.00
77118;BME280;66072;50.238;19.228;2024-02-14T03:40:39;99073.27;;;-0.69;100.00
77118;BME280;66072;50.238;19.228;2024-02-14T03:43:06;99076.16;;;-0.67;100.00
77118;BME280;66072;50.238;19.228;2024-02-14T03:45:34;99078.35;;;-0.67;100.00
77118;BME280;66072;50.238;19.228;2024-02-14T03:48:02;99078.68;;;-0.67;100.00
77118;BME280;66072;50.238;19.228;2024-02-14T03:50:30;99079.52;;;-0.67;100.00
77118;BME280;66072;50.238;19.228;2024-02-14T03:52:58;99079.85;;;-0.67;100.00
77118;BME280;66072;50.238;19.228;2024-02-14T03:55:25;99077.84;;;-0.67;100.00
77118;BME280;66072;50.238;19.228;2024-02-14T03:57:53;99075.48;;;-0.67;100.00
77118;BME280;66072;50.238;19.228;2024-02-14T04:00:21;99079.33;;;-0.68;100.00
77118;BME280;66072;50.238;19.228;2024-02-14T04:02:49;99084.87;;;-0.69;100.00
77118;BME280;66072;50.238;19.228;2024-02-14T04:05:17;99085.02;;;-0.70;100.00
77118;BME280;66072;50.238;19.228;2024-02-14T04:07:44;99088.39;;;-0.71;100.00
77118;BME280;66072;50.238;19.228;2024-02-14T04:10:12;99086.52;;;-0.74;100.00
77118;BME280;66072;50.238;19.228;2024-02-14T04:12:40;99088.33;;;-0.76;100.00
77118;BME280;66072;50.238;19.228;2024-02-14T04:15:08;99096.05;;;-0.79;100.00
77118;BME280;66072;50.238;19.228;2024-02-14T04:17:36;99095.67;;;-0.82;100.00
77118;BME280;66072;50.238;19.228;2024-02-14T04:20:04;99096.15;;;-0.85;100.00
77118;BME280;66072;50.238;19.228;2024-02-14T04:22:32;99091.90;;;-0.90;100.00
77118;BME280;66072;50.238;19.228;2024-02-14T04:25:00;99094.70;;;-0.95;100.00
77118;BME280;66072;50.238;19.228;2024-02-14T04:27:28;99094.80;;;-1.02;100.00
77118;BME280;66072;50.238;19.228;2024-02-14T04:29:55;99096.09;;;-1.07;100.00
77118;BME280;66072;50.238;19.228;2024-02-14T04:32:23;99100.08;;;-1.12;100.00
77118;BME280;66072;50.238;19.228;2024-02-14T04:34:51;99102.58;;;-1.15;100.00
77118;BME280;66072;50.238;19.228;2024-02-14T04:37:19;99104.05;;;-1.17;100.00
77118;BME280;66072;50.238;19.228;2024-02-14T04:39:47;99103.18;;;-1.19;100.00
77118;BME280;66072;50.238;19.228;2024-02-14T04:42:14;99107.36;;;-1.22;100.00
77118;BME280;66072;50.238;19.228;2024-02-14T04:44:42;99110.84;;;-1.26;100.00
77118;BME280;66072;50.238;19.228;2024-02-14T04:47:10;99107.24;;;-1.31;100.00
77118;BME280;66072;50.238;19.228;2024-02-14T04:49:37;99106.68;;;-1.37;100.00
77118;BME280;66072;50.238;19.228;2024-02-14T04:52:05;99108.45;;;-1.43;100.00
77118;BME280;66072;50.238;19.228;2024-02-14T04:54:33;99105.36;;;-1.49;100.00
77118;BME280;66072;50.238;19.228;2024-02-14T04:57:01;99104.29;;;-1.55;100.00
77118;BME280;66072;50.238;19.228;2024-02-14T04:59:30;99108.05;;;-1.63;100.00
77118;BME280;66072;50.238;19.228;2024-02-14T05:01:58;99109.48;;;-1.68;100.00
77118;BME280;66072;50.238;19.228;2024-02-14T05:04:26;99111.59;;;-1.74;100.00
77118;BME280;66072;50.238;19.228;2024-02-14T05:06:53;99112.36;;;-1.80;100.00
77118;BME280;66072;50.238;19.228;2024-02-14T05:09:25;99111.95;;;-1.85;100.00
77118;BME280;66072;50.238;19.228;2024-02-14T05:11:53;99116.11;;;-1.88;100.00
77118;BME280;66072;50.238;19.228;2024-02-14T05:14:21;99116.20;;;-1.93;100.00
77118;BME280;66072;50.238;19.228;2024-02-14T05:16:49;99115.13;;;-1.98;100.00
77118;BME280;66072;50.238;19.228;2024-02-14T05:19:17;99111.69;;;-2.04;100.00
77118;BME280;66072;50.238;19.228;2024-02-14T05:21:45;99111.81;;;-2.07;100.00
77118;BME280;66072;50.238;19.228;2024-02-14T05:24:13;99107.04;;;-2.12;100.00
77118;BME280;66072;50.238;19.228;2024-02-14T05:26:41;99107.95;;;-2.20;100.00
77118;BME280;66072;50.238;19.228;2024-02-14T05:29:09;99108.66;;;-2.27;100.00
77118;BME280;66072;50.238;19.228;2024-02-14T05:31:45;99111.91;;;-2.34;100.00
77118;BME280;66072;50.238;19.228;2024-02-14T05:34:13;99111.12;;;-2.41;100.00
77118;BME280;66072;50.238;19.228;2024-02-14T05:36:41;99106.86;;;-2.47;100.00
77118;BME280;66072;50.238;19.228;2024-02-14T05:39:09;99110.14;;;-2.51;100.00
77118;BME280;66072;50.238;19.228;2024-02-14T05:41:37;99107.05;;;-2.55;100.00
77118;BME280;66072;50.238;19.228;2024-02-14T05:44:05;99107.99;;;-2.59;100.00
77118;BME280;66072;50.238;19.228;2024-02-14T05:46:33;99109.24;;;-2.64;100.00
77118;BME280;66072;50.238;19.228;2024-02-14T05:49:00;99114.55;;;-2.68;100.00
77118;BME280;66072;50.238;19.228;2024-02-14T05:51:28;99118.33;;;-2.72;100.00
77118;BME280;66072;50.238;19.228;2024-02-14T05:53:56;99117.13;;;-2.74;100.00
77118;BME280;66072;50.238;19.228;2024-02-14T05:56:23;99120.30;;;-2.75;100.00
77118;BME280;66072;50.238;19.228;2024-02-14T05:58:51;99117.75;;;-2.77;100.00
77118;BME280;66072;50.238;19.228;2024-02-14T06:01:19;99118.72;;;-2.79;100.00
77118;BME280;66072;50.238;19.228;2024-02-14T06:03:47;99120.87;;;-2.80;100.00
77118;BME280;66072;50.238;19.228;2024-02-14T06:06:15;99116.69;;;-2.81;100.00
77118;BME280;66072;50.238;19.228;2024-02-14T06:08:43;99122.05;;;-2.80;100.00
77118;BME280;66072;50.238;19.228;2024-02-14T06:11:10;99123.40;;;-2.78;100.00
77118;BME280;66072;50.238;19.228;2024-02-14T06:13:38;99127.46;;;-2.76;100.00
77118;BME280;66072;50.238;19.228;2024-02-14T06:16:07;99128.48;;;-2.75;100.00
77118;BME280;66072;50.238;19.228;2024-02-14T06:18:35;99129.86;;;-2.73;100.00
77118;BME280;66072;50.238;19.228;2024-02-14T06:21:03;99130.38;;;-2.72;100.00
77118;BME280;66072;50.238;19.228;2024-02-14T06:23:31;99130.27;;;-2.69;100.00
77118;BME280;66072;50.238;19.228;2024-02-14T06:25:59;99131.14;;;-2.67;100.00
77118;BME280;66072;50.238;19.228;2024-02-14T06:28:27;99133.88;;;-2.64;100.00
77118;BME280;66072;50.238;19.228;2024-02-14T06:30:54;99138.77;;;-2.60;100.00
77118;BME280;66072;50.238;19.228;2024-02-14T06:33:22;99141.70;;;-2.56;100.00
77118;BME280;66072;50.238;19.228;2024-02-14T06:35:50;99142.77;;;-2.52;100.00
77118;BME280;66072;50.238;19.228;2024-02-14T06:38:18;99147.89;;;-2.46;100.00
77118;BME280;66072;50.238;19.228;2024-02-14T06:40:46;99149.86;;;-2.39;100.00
77118;BME280;66072;50.238;19.228;2024-02-14T06:43:14;99150.95;;;-2.33;100.00
77118;BME280;66072;50.238;19.228;2024-02-14T06:45:41;99149.38;;;-2.27;100.00
77118;BME280;66072;50.238;19.228;2024-02-14T06:48:09;99151.63;;;-2.22;100.00
77118;BME280;66072;50.238;19.228;2024-02-14T06:50:37;99149.71;;;-2.16;100.00
77118;BME280;66072;50.238;19.228;2024-02-14T06:53:06;99145.61;;;-2.10;100.00
77118;BME280;66072;50.238;19.228;2024-02-14T06:55:33;99147.06;;;-2.03;100.00
77118;BME280;66072;50.238;19.228;2024-02-14T06:58:01;99148.84;;;-1.96;100.00
77118;BME280;66072;50.238;19.228;2024-02-14T07:00:29;99151.31;;;-1.87;100.00
77118;BME280;66072;50.238;19.228;2024-02-14T07:02:57;99152.94;;;-1.79;100.00
77118;BME280;66072;50.238;19.228;2024-02-14T07:05:28;99154.21;;;-1.71;100.00
77118;BME280;66072;50.238;19.228;2024-02-14T07:07:56;99159.23;;;-1.61;100.00
77118;BME280;66072;50.238;19.228;2024-02-14T07:10:24;99159.20;;;-1.50;100.00
77118;BME280;66072;50.238;19.228;2024-02-14T07:12:52;99160.49;;;-1.40;100.00
77118;BME280;66072;50.238;19.228;2024-02-14T07:15:20;99154.78;;;-1.27;100.00
77118;BME280;66072;50.238;19.228;2024-02-14T07:17:48;99156.13;;;-1.13;100.00
77118;BME280;66072;50.238;19.228;2024-02-14T07:20:16;99154.52;;;-0.92;100.00
77118;BME280;66072;50.238;19.228;2024-02-14T07:22:43;99149.55;;;-0.68;100.00
77118;BME280;66072;50.238;19.228;2024-02-14T07:25:11;99150.92;;;-0.46;100.00
77118;BME280;66072;50.238;19.228;2024-02-14T07:27:39;99152.42;;;-0.26;100.00
77118;BME280;66072;50.238;19.228;2024-02-14T07:30:07;99151.71;;;-0.10;100.00
77118;BME280;66072;50.238;19.228;2024-02-14T07:32:36;99152.98;;;0.05;100.00
77118;BME280;66072;50.238;19.228;2024-02-14T07:35:04;99151.73;;;0.17;100.00
77118;BME280;66072;50.238;19.228;2024-02-14T07:37:32;99156.86;;;0.32;100.00
77118;BME280;66072;50.238;19.228;2024-02-14T07:40:00;99156.09;;;0.44;100.00
77118;BME280;66072;50.238;19.228;2024-02-14T07:42:28;99153.12;;;0.55;100.00
77118;BME280;66072;50.238;19.228;2024-02-14T07:44:56;99147.45;;;0.69;100.00
77118;BME280;66072;50.238;19.228;2024-02-14T07:47:24;99149.02;;;0.82;100.00
77118;BME280;66072;50.238;19.228;2024-02-14T07:49:52;99149.90;;;0.94;100.00
77118;BME280;66072;50.238;19.228;2024-02-14T07:52:19;99153.14;;;1.05;100.00
77118;BME280;66072;50.238;19.228;2024-02-14T07:54:51;99157.71;;;1.19;100.00
77118;BME280;66072;50.238;19.228;2024-02-14T07:57:19;99153.36;;;1.31;100.00
77118;BME280;66072;50.238;19.228;2024-02-14T07:59:47;99158.09;;;1.41;100.00
77118;BME280;66072;50.238;19.228;2024-02-14T08:02:14;99158.44;;;1.50;100.00
77118;BME280;66072;50.238;19.228;2024-02-14T08:04:42;99155.25;;;1.59;100.00
77118;BME280;66072;50.238;19.228;2024-02-14T08:07:10;99154.08;;;1.68;100.00
77118;BME280;66072;50.238;19.228;2024-02-14T08:09:38;99154.91;;;1.77;100.00
77118;BME280;66072;50.238;19.228;2024-02-14T08:12:05;99156.27;;;1.84;100.00
77118;BME280;66072;50.238;19.228;2024-02-14T08:14:33;99160.48;;;1.92;100.00
77118;BME280;66072;50.238;19.228;2024-02-14T08:17:01;99165.02;;;2.00;100.00
77118;BME280;66072;50.238;19.228;2024-02-14T08:19:29;99164.86;;;2.06;100.00
77118;BME280;66072;50.238;19.228;2024-02-14T08:21:57;99165.02;;;2.13;100.00
77118;BME280;66072;50.238;19.228;2024-02-14T08:24:25;99162.98;;;2.20;100.00
77118;BME280;66072;50.238;19.228;2024-02-14T08:26:56;99163.48;;;2.26;99.98
77118;BME280;66072;50.238;19.228;2024-02-14T08:29:24;99166.49;;;2.33;99.69
77118;BME280;66072;50.238;19.228;2024-02-14T08:31:52;99168.35;;;2.39;99.26
77118;BME280;66072;50.238;19.228;2024-02-14T08:34:19;99169.52;;;2.45;98.47
77118;BME280;66072;50.238;19.228;2024-02-14T08:36:47;99171.18;;;2.50;97.78
77118;BME280;66072;50.238;19.228;2024-02-14T08:39:15;99171.16;;;2.55;97.64
77118;BME280;66072;50.238;19.228;2024-02-14T08:41:43;99166.77;;;2.60;97.58
77118;BME280;66072;50.238;19.228;2024-02-14T08:44:11;99167.42;;;2.66;97.17
77118;BME280;66072;50.238;19.228;2024-02-14T08:46:39;99170.11;;;2.73;96.18
77118;BME280;66072;50.238;19.228;2024-02-14T08:49:07;99166.36;;;2.78;95.14
77118;BME280;66072;50.238;19.228;2024-02-14T08:51:38;99169.73;;;2.84;95.52
77118;BME280;66072;50.238;19.228;2024-02-14T08:54:06;99167.00;;;2.90;94.81
77118;BME280;66072;50.238;19.228;2024-02-14T08:56:34;99166.64;;;2.95;94.34
77118;BME280;66072;50.238;19.228;2024-02-14T08:59:02;99167.63;;;3.02;94.23
77118;BME280;66072;50.238;19.228;2024-02-14T09:01:30;99170.11;;;3.09;94.36
77118;BME280;66072;50.238;19.228;2024-02-14T09:03:58;99165.00;;;3.17;94.38
77118;BME280;66072;50.238;19.228;2024-02-14T09:06:26;99156.50;;;3.27;94.51
77118;BME280;66072;50.238;19.228;2024-02-14T09:08:54;99155.77;;;3.35;93.19
77118;BME280;66072;50.238;19.228;2024-02-14T09:11:22;99158.42;;;3.44;92.70
77118;BME280;66072;50.238;19.228;2024-02-14T09:13:50;99154.83;;;3.51;92.44
77118;BME280;66072;50.238;19.228;2024-02-14T09:16:18;99155.27;;;3.60;92.40
77118;BME280;66072;50.238;19.228;2024-02-14T09:18:45;99154.70;;;3.69;91.96
77118;BME280;66072;50.238;19.228;2024-02-14T09:21:13;99152.74;;;3.80;91.32
77118;BME280;66072;50.238;19.228;2024-02-14T09:23:46;99152.31;;;3.91;91.60
77118;BME280;66072;50.238;19.228;2024-02-14T09:26:14;99156.95;;;4.02;91.36
77118;BME280;66072;50.238;19.228;2024-02-14T09:28:42;99152.98;;;4.12;91.02
77118;BME280;66072;50.238;19.228;2024-02-14T09:31:10;99154.40;;;4.22;90.27
77118;BME280;66072;50.238;19.228;2024-02-14T09:33:38;99153.64;;;4.30;89.28
77118;BME280;66072;50.238;19.228;2024-02-14T09:36:07;99157.45;;;4.38;88.91
77118;BME280;66072;50.238;19.228;2024-02-14T09:38:35;99156.52;;;4.47;88.54
77118;BME280;66072;50.238;19.228;2024-02-14T09:41:14;99152.85;;;4.56;88.51
77118;BME280;66072;50.238;19.228;2024-02-14T09:43:44;99153.91;;;4.67;87.55
77118;BME280;66072;50.238;19.228;2024-02-14T09:46:13;99157.67;;;4.79;85.36
77118;BME280;66072;50.238;19.228;2024-02-14T09:48:45;99157.69;;;4.92;84.76
77118;BME280;66072;50.238;19.228;2024-02-14T09:51:13;99155.20;;;5.01;82.90
77118;BME280;66072;50.238;19.228;2024-02-14T09:53:41;99151.34;;;5.10;83.68
77118;BME280;66072;50.238;19.228;2024-02-14T09:56:10;99152.23;;;5.20;82.54
77118;BME280;66072;50.238;19.228;2024-02-14T09:58:40;99149.72;;;5.29;80.94
77118;BME280;66072;50.238;19.228;2024-02-14T10:01:08;99150.77;;;5.38;78.62
77118;BME280;66072;50.238;19.228;2024-02-14T10:03:36;99143.73;;;5.45;78.33
77118;BME280;66072;50.238;19.228;2024-02-14T10:06:03;99139.36;;;5.53;76.34
77118;BME280;66072;50.238;19.228;2024-02-14T10:08:32;99138.68;;;5.64;74.18
77118;BME280;66072;50.238;19.228;2024-02-14T10:11:00;99134.92;;;5.76;75.34
77118;BME280;66072;50.238;19.228;2024-02-14T10:13:28;99137.13;;;5.87;73.68
77118;BME280;66072;50.238;19.228;2024-02-14T10:15:56;99135.91;;;6.01;73.84
77118;BME280;66072;50.238;19.228;2024-02-14T10:18:24;99137.65;;;6.18;72.02
77118;BME280;66072;50.238;19.228;2024-02-14T10:20:55;99135.77;;;6.37;69.22
77118;BME280;66072;50.238;19.228;2024-02-14T10:23:24;99134.66;;;6.59;67.71
77118;BME280;66072;50.238;19.228;2024-02-14T10:25:54;99130.05;;;6.77;69.56
77118;BME280;66072;50.238;19.228;2024-02-14T10:28:22;99125.90;;;6.97;68.43
77118;BME280;66072;50.238;19.228;2024-02-14T10:31:05;99127.21;;;7.15;68.13
77118;BME280;66072;50.238;19.228;2024-02-14T10:33:33;99126.41;;;7.28;65.75
77118;BME280;66072;50.238;19.228;2024-02-14T10:36:01;99124.73;;;7.35;65.80
77118;BME280;66072;50.238;19.228;2024-02-14T10:38:32;99119.24;;;7.44;64.42
77118;BME280;66072;50.238;19.228;2024-02-14T10:41:01;99122.54;;;7.56;65.75
77118;BME280;66072;50.238;19.228;2024-02-14T10:43:29;99125.45;;;7.69;65.03
77118;BME280;66072;50.238;19.228;2024-02-14T10:46:00;99127.96;;;7.77;61.36
77118;BME280;66072;50.238;19.228;2024-02-14T10:48:31;99124.42;;;7.84;61.91
77118;BME280;66072;50.238;19.228;2024-02-14T10:51:02;99120.73;;;7.95;62.26
77118;BME280;66072;50.238;19.228;2024-02-14T10:53:33;99114.77;;;8.08;61.41
77118;BME280;66072;50.238;19.228;2024-02-14T10:56:01;99110.48;;;8.16;60.29
77118;BME280;66072;50.238;19.228;2024-02-14T10:58:30;99109.29;;;8.22;61.31
77118;BME280;66072;50.238;19.228;2024-02-14T11:01:00;99109.21;;;8.25;60.67
77118;BME280;66072;50.238;19.228;2024-02-14T11:03:28;99104.35;;;8.29;61.39
77118;BME280;66072;50.238;19.228;2024-02-14T11:06:01;99102.17;;;8.33;60.64
77118;BME280;66072;50.238;19.228;2024-02-14T11:08:29;99095.96;;;8.37;59.69
77118;BME280;66072;50.238;19.228;2024-02-14T11:10:59;99096.45;;;8.44;59.26
77118;BME280;66072;50.238;19.228;2024-02-14T11:13:28;99093.02;;;8.51;58.42
77118;BME280;66072;50.238;19.228;2024-02-14T11:15:59;99095.66;;;8.54;58.09
77118;BME280;66072;50.238;19.228;2024-02-14T11:18:28;99091.64;;;8.64;58.38
77118;BME280;66072;50.238;19.228;2024-02-14T11:20:56;99089.98;;;8.74;57.87
77118;BME280;66072;50.238;19.228;2024-02-14T11:23:25;99086.42;;;8.85;57.71
77118;BME280;66072;50.238;19.228;2024-02-14T11:26:19;99086.84;;;9.00;57.83
77118;BME280;66072;50.238;19.228;2024-02-14T11:28:47;99087.31;;;9.12;56.01
77118;BME280;66072;50.238;19.228;2024-02-14T11:31:17;99087.09;;;9.25;57.03
77118;BME280;66072;50.238;19.228;2024-02-14T11:33:45;99084.88;;;9.41;55.98
77118;BME280;66072;50.238;19.228;2024-02-14T11:36:13;99082.78;;;9.53;56.00
77118;BME280;66072;50.238;19.228;2024-02-14T11:38:41;99077.95;;;9.65;55.70
77118;BME280;66072;50.238;19.228;2024-02-14T11:41:10;99075.41;;;9.69;55.87
77118;BME280;66072;50.238;19.228;2024-02-14T11:43:38;99072.08;;;9.82;56.36
77118;BME280;66072;50.238;19.228;2024-02-14T11:46:06;99070.46;;;9.89;55.45
77118;BME280;66072;50.238;19.228;2024-02-14T11:48:34;99070.35;;;9.93;56.41
77118;BME280;66072;50.238;19.228;2024-02-14T11:51:03;99064.12;;;9.95;55.41
77118;BME280;66072;50.238;19.228;2024-02-14T11:53:31;99065.13;;;10.01;55.53
77118;BME280;66072;50.238;19.228;2024-02-14T11:55:59;99060.48;;;10.06;55.64
77118;BME280;66072;50.238;19.228;2024-02-14T11:58:27;99057.80;;;10.05;54.01
77118;BME280;66072;50.238;19.228;2024-02-14T12:00:55;99058.94;;;9.97;55.02
77118;BME280;66072;50.238;19.228;2024-02-14T12:03:23;99053.34;;;9.90;54.39
77118;BME280;66072;50.238;19.228;2024-02-14T12:05:53;99054.91;;;9.85;54.90
77118;BME280;66072;50.238;19.228;2024-02-14T12:08:21;99055.63;;;9.89;54.61
77118;BME280;66072;50.238;19.228;2024-02-14T12:10:50;99051.12;;;9.96;53.88
77118;BME280;66072;50.238;19.228;2024-02-14T12:13:20;99045.75;;;10.17;54.23
77118;BME280;66072;50.238;19.228;2024-02-14T12:15:49;99044.16;;;10.52;53.93
77118;BME280;66072;50.238;19.228;2024-02-14T12:18:19;99044.45;;;10.86;51.24
77118;BME280;66072;50.238;19.228;2024-02-14T12:20:47;99046.00;;;11.21;49.67
77118;BME280;66072;50.238;19.228;2024-02-14T12:23:18;99042.10;;;11.28;49.28
77118;BME280;66072;50.238;19.228;2024-02-14T12:25:46;99040.45;;;11.31;51.08
77118;BME280;66072;50.238;19.228;2024-02-14T12:28:17;99037.31;;;11.41;50.06
77118;BME280;66072;50.238;19.228;2024-02-14T12:30:47;99032.87;;;12.06;49.88
77118;BME280;66072;50.238;19.228;2024-02-14T12:33:17;99030.86;;;12.92;48.43
77118;BME280;66072;50.238;19.228;2024-02-14T12:35:47;99031.33;;;13.51;46.09
77118;BME280;66072;50.238;19.228;2024-02-14T12:38:18;99029.62;;;13.68;45.42
77118;BME280;66072;50.238;19.228;2024-02-14T12:40:46;99028.19;;;13.70;43.90
77118;BME280;66072;50.238;19.228;2024-02-14T12:43:15;99028.98;;;13.50;41.67
77118;BME280;66072;50.238;19.228;2024-02-14T12:45:43;99023.23;;;13.41;42.12
77118;BME280;66072;50.238;19.228;2024-02-14T12:48:13;99021.40;;;13.36;41.68
77118;BME280;66072;50.238;19.228;2024-02-14T12:50:41;99025.82;;;13.30;41.95
77118;BME280;66072;50.238;19.228;2024-02-14T12:53:09;99022.86;;;13.49;42.64